createdAt,value
2017-05-19T00:00:42.741Z,0
2017-05-19T00:01:42.697Z,0
2017-05-19T00:02:42.954Z,0
2017-05-19T00:03:42.764Z,0
2017-05-19T00:04:41.427Z,0
2017-05-19T00:05:41.798Z,0
2017-05-19T00:06:42.700Z,0
2017-05-19T00:07:42.439Z,0
2017-05-19T00:08:42.394Z,0
2017-05-19T00:09:42.409Z,0
2017-05-19T00:10:42.725Z,0
2017-05-19T00:11:42.740Z,0
2017-05-19T00:12:42.435Z,0
2017-05-19T00:13:42.813Z,0
2017-05-19T00:14:41.821Z,0
2017-05-19T00:15:43.119Z,0
2017-05-19T00:16:42.468Z,0
2017-05-19T00:17:42.782Z,0
2017-05-19T00:18:42.842Z,0
2017-05-19T00:19:42.487Z,0
2017-05-19T00:20:42.235Z,0
2017-05-19T00:21:42.193Z,0
2017-05-19T00:22:41.941Z,0
2017-05-19T00:23:42.589Z,0
2017-05-19T00:24:42.220Z,0
2017-05-19T00:25:42.847Z,0
2017-05-19T00:26:42.858Z,0
2017-05-19T00:27:42.555Z,0
2017-05-19T00:28:42.919Z,0
2017-05-19T00:29:42.568Z,0
2017-05-19T00:30:42.898Z,0
2017-05-19T00:31:42.896Z,0
2017-05-19T00:32:42.383Z,0
2017-05-19T00:33:42.921Z,0
2017-05-19T00:34:42.985Z,0
2017-05-19T00:35:42.621Z,0
2017-05-19T00:36:42.972Z,0
2017-05-19T00:37:42.329Z,0
2017-05-19T00:38:42.405Z,0
2017-05-19T00:39:43.081Z,0
2017-05-19T00:40:43.028Z,0
2017-05-19T00:41:42.723Z,0
2017-05-19T00:42:42.990Z,0
2017-05-19T00:43:43.003Z,0
2017-05-19T00:44:42.700Z,0
2017-05-19T00:45:43.073Z,0
2017-05-19T00:46:42.410Z,0
2017-05-19T00:47:42.773Z,0
2017-05-19T00:48:43.098Z,0
2017-05-19T00:49:42.802Z,0
2017-05-19T00:50:42.748Z,0
2017-05-19T00:51:42.749Z,0
2017-05-19T00:52:42.764Z,0
2017-05-19T00:53:42.820Z,0
2017-05-19T00:54:42.784Z,0
2017-05-19T00:55:42.791Z,0
2017-05-19T00:56:42.842Z,0
2017-05-19T00:57:42.805Z,0
2017-05-19T00:58:43.178Z,0
2017-05-19T00:59:43.135Z,0
2017-05-19T01:00:42.829Z,0
2017-05-19T01:01:43.145Z,0
2017-05-19T01:02:43.157Z,0
2017-05-19T01:03:42.958Z,0
2017-05-19T01:04:43.272Z,0
2017-05-19T01:05:42.869Z,0
2017-05-19T01:06:43.189Z,0
2017-05-19T01:07:42.940Z,0
2017-05-19T01:08:43.255Z,0
2017-05-19T01:09:43.221Z,0
2017-05-19T01:10:43.321Z,0
2017-05-19T01:11:43.283Z,0
2017-05-19T01:12:43.292Z,0
2017-05-19T01:13:42.953Z,0
2017-05-19T01:14:42.942Z,0
2017-05-19T01:15:42.955Z,0
2017-05-19T01:16:43.076Z,0
2017-05-19T01:17:43.280Z,0
2017-05-19T01:18:42.354Z,0
2017-05-19T01:19:43.295Z,0
2017-05-19T01:20:43.313Z,0
2017-05-19T01:21:43.066Z,0
2017-05-19T01:22:43.324Z,0
2017-05-19T01:23:42.766Z,0
2017-05-19T01:24:43.340Z,0
2017-05-19T01:25:43.446Z,0
2017-05-19T01:26:43.457Z,0
2017-05-19T01:27:43.052Z,0
2017-05-19T01:28:42.751Z,0
2017-05-19T01:29:42.761Z,0
2017-05-19T01:30:42.767Z,0
2017-05-19T01:31:43.447Z,0
2017-05-19T01:32:42.785Z,0
2017-05-19T01:33:43.414Z,0
2017-05-19T01:34:43.434Z,0
2017-05-19T01:35:43.429Z,0
2017-05-19T01:36:42.871Z,0
2017-05-19T01:37:43.187Z,0
2017-05-19T01:38:43.193Z,0
2017-05-19T01:39:43.152Z,0
2017-05-19T01:40:43.471Z,0
2017-05-19T01:41:43.538Z,0
2017-05-19T01:42:43.540Z,0
2017-05-19T01:43:42.881Z,0
2017-05-19T01:44:42.886Z,0
2017-05-19T01:45:43.258Z,0
2017-05-19T01:46:43.525Z,0
2017-05-19T01:47:43.221Z,0
2017-05-19T01:48:43.539Z,0
2017-05-19T01:49:43.238Z,0
2017-05-19T01:50:43.248Z,0
2017-05-19T01:51:43.673Z,0
2017-05-19T01:52:43.269Z,0
2017-05-19T01:53:43.681Z,0
2017-05-19T01:54:43.280Z,0
2017-05-19T01:55:43.650Z,0
2017-05-19T01:56:43.612Z,0
2017-05-19T01:57:43.610Z,0
2017-05-19T01:58:43.417Z,0
2017-05-19T01:59:43.687Z,0
2017-05-19T02:00:43.329Z,0
2017-05-19T02:01:43.648Z,0
2017-05-19T02:02:43.348Z,0
2017-05-19T02:03:43.667Z,0
2017-05-19T02:04:43.671Z,0
2017-05-19T02:05:43.420Z,0
2017-05-19T02:06:43.066Z,0
2017-05-19T02:07:43.133Z,0
2017-05-19T02:08:43.086Z,0
2017-05-19T02:09:43.710Z,0
2017-05-19T02:10:43.413Z,0
2017-05-19T02:11:43.724Z,0
2017-05-19T02:12:43.791Z,0
2017-05-19T02:13:43.804Z,0
2017-05-19T02:14:43.760Z,0
2017-05-19T02:15:43.448Z,0
2017-05-19T02:16:43.472Z,0
2017-05-19T02:17:43.526Z,0
2017-05-19T02:18:43.868Z,0
2017-05-19T02:19:43.175Z,0
2017-05-19T02:20:43.494Z,0
2017-05-19T02:21:43.507Z,0
2017-05-19T02:22:43.204Z,0
2017-05-19T02:23:43.836Z,0
2017-05-19T02:24:43.889Z,0
2017-05-19T02:25:43.903Z,0
2017-05-19T02:26:43.282Z,0
2017-05-19T02:27:43.612Z,0
2017-05-19T02:28:43.977Z,0
2017-05-19T02:29:43.261Z,0
2017-05-19T02:30:43.946Z,0
2017-05-19T02:31:43.892Z,0
2017-05-19T02:32:43.593Z,0
2017-05-19T02:33:43.597Z,0
2017-05-19T02:34:43.613Z,0
2017-05-19T02:35:43.719Z,0
2017-05-19T02:36:43.628Z,0
2017-05-19T02:37:43.332Z,0
2017-05-19T02:38:43.699Z,0
2017-05-19T02:39:44.031Z,0
2017-05-19T02:40:44.022Z,0
2017-05-19T02:41:43.978Z,0
2017-05-19T02:42:44.041Z,0
2017-05-19T02:43:43.733Z,0
2017-05-19T02:44:43.798Z,0
2017-05-19T02:45:44.115Z,0
2017-05-19T02:46:44.022Z,0
2017-05-19T02:47:44.028Z,0
2017-05-19T02:48:43.426Z,0
2017-05-19T02:49:44.055Z,0
2017-05-19T02:50:43.795Z,0
2017-05-19T02:51:44.191Z,0
2017-05-19T02:52:44.062Z,0
2017-05-19T02:53:43.828Z,0
2017-05-19T02:54:43.777Z,0
2017-05-19T02:55:44.148Z,0
2017-05-19T02:56:44.109Z,0
2017-05-19T02:57:44.121Z,0
2017-05-19T02:58:44.175Z,0
2017-05-19T02:59:43.819Z,0
2017-05-19T03:00:44.150Z,0
2017-05-19T03:01:43.859Z,0
2017-05-19T03:02:43.854Z,0
2017-05-19T03:03:43.863Z,0
2017-05-19T03:04:44.170Z,0
2017-05-19T03:05:43.869Z,0
2017-05-19T03:06:43.613Z,0
2017-05-19T03:07:43.930Z,0
2017-05-19T03:08:43.906Z,0
2017-05-19T03:09:43.905Z,0
2017-05-19T03:10:44.220Z,0
2017-05-19T03:11:43.608Z,0
2017-05-19T03:12:43.981Z,0
2017-05-19T03:13:43.627Z,0
2017-05-19T03:14:43.633Z,0
2017-05-19T03:15:44.266Z,0
2017-05-19T03:16:44.270Z,0
2017-05-19T03:17:43.982Z,0
2017-05-19T03:18:44.295Z,0
2017-05-19T03:19:44.296Z,0
2017-05-19T03:20:44.303Z,0
2017-05-19T03:21:43.687Z,0
2017-05-19T03:22:43.798Z,0
2017-05-19T03:23:44.333Z,0
2017-05-19T03:24:44.338Z,0
2017-05-19T03:25:44.347Z,0
2017-05-19T03:26:44.404Z,0
2017-05-19T03:27:44.368Z,0
2017-05-19T03:28:44.381Z,0
2017-05-19T03:29:43.203Z,0
2017-05-19T03:30:44.440Z,0
2017-05-19T03:31:44.394Z,0
2017-05-19T03:32:44.153Z,0
2017-05-19T03:33:44.106Z,0
2017-05-19T03:34:44.425Z,0
2017-05-19T03:35:44.118Z,0
2017-05-19T03:36:44.177Z,0
2017-05-19T03:37:44.188Z,0
2017-05-19T03:38:44.457Z,0
2017-05-19T03:39:44.559Z,0
2017-05-19T03:40:44.178Z,0
2017-05-19T03:41:44.226Z,0
2017-05-19T03:42:44.850Z,0
2017-05-19T03:43:44.504Z,0
2017-05-19T03:44:44.344Z,0
2017-05-19T03:45:44.564Z,0
2017-05-19T03:46:44.209Z,0
2017-05-19T03:47:44.528Z,0
2017-05-19T03:48:44.640Z,0
2017-05-19T03:49:44.547Z,0
2017-05-19T03:50:44.292Z,0
2017-05-19T03:51:44.250Z,0
2017-05-19T03:52:44.628Z,0
2017-05-19T03:53:44.272Z,0
2017-05-19T03:54:44.636Z,0
2017-05-19T03:55:44.599Z,0
2017-05-19T03:56:44.602Z,0
2017-05-19T03:57:44.304Z,0
2017-05-19T03:58:44.632Z,0
2017-05-19T03:59:44.375Z,0
2017-05-19T04:00:44.328Z,0
2017-05-19T04:01:44.701Z,0
2017-05-19T04:02:44.767Z,0
2017-05-19T04:03:44.766Z,0
2017-05-19T04:04:44.673Z,0
2017-05-19T04:05:44.054Z,0
2017-05-19T04:06:44.065Z,0
2017-05-19T04:07:44.197Z,0
2017-05-19T04:08:44.756Z,0
2017-05-19T04:09:44.714Z,0
2017-05-19T04:10:44.742Z,0
2017-05-19T04:11:44.468Z,0
2017-05-19T04:12:44.440Z,0
2017-05-19T04:13:44.437Z,0
2017-05-19T04:14:44.441Z,0
2017-05-19T04:15:44.769Z,0
2017-05-19T04:16:44.766Z,0
2017-05-19T04:17:44.779Z,0
2017-05-19T04:18:44.794Z,0
2017-05-19T04:19:44.795Z,0
2017-05-19T04:20:44.910Z,0
2017-05-19T04:21:44.553Z,0
2017-05-19T04:22:44.875Z,0
2017-05-19T04:23:44.523Z,0
2017-05-19T04:24:44.833Z,0
2017-05-19T04:25:44.638Z,0
2017-05-19T04:26:44.550Z,0
2017-05-19T04:27:44.553Z,0
2017-05-19T04:28:44.918Z,0
2017-05-19T04:29:44.872Z,0
2017-05-19T04:30:44.890Z,0
2017-05-19T04:31:44.897Z,0
2017-05-19T04:32:44.603Z,0
2017-05-19T04:33:44.606Z,0
2017-05-19T04:34:44.611Z,0
2017-05-19T04:35:44.669Z,0
2017-05-19T04:36:44.370Z,0
2017-05-19T04:37:44.629Z,0
2017-05-19T04:38:44.958Z,0
2017-05-19T04:39:44.747Z,0
2017-05-19T04:40:44.657Z,0
2017-05-19T04:41:44.401Z,0
2017-05-19T04:42:44.140Z,0
2017-05-19T04:43:44.686Z,0
2017-05-19T04:44:45.053Z,0
2017-05-19T04:45:44.700Z,0
2017-05-19T04:46:44.804Z,0
2017-05-19T04:47:45.327Z,0
2017-05-19T04:48:44.154Z,0
2017-05-19T04:49:45.040Z,0
2017-05-19T04:50:45.151Z,0
2017-05-19T04:51:45.056Z,0
2017-05-19T04:52:45.071Z,0
2017-05-19T04:53:44.456Z,5
2017-05-19T04:54:44.462Z,5
2017-05-19T04:55:45.092Z,5
2017-05-19T04:56:44.786Z,5
2017-05-19T04:57:44.490Z,5
2017-05-19T04:58:45.176Z,5
2017-05-19T04:59:44.516Z,5
2017-05-19T05:00:45.131Z,5
2017-05-19T05:01:44.840Z,5
2017-05-19T05:02:45.154Z,5
2017-05-19T05:03:44.849Z,5
2017-05-19T05:04:44.550Z,5
2017-05-19T05:05:44.557Z,0
2017-05-19T05:06:45.196Z,0
2017-05-19T05:07:44.886Z,0
2017-05-19T05:08:44.892Z,0
2017-05-19T05:09:45.213Z,5
2017-05-19T05:10:44.905Z,5
2017-05-19T05:11:44.603Z,0
2017-05-19T05:12:45.240Z,0
2017-05-19T05:13:44.929Z,5
2017-05-19T05:14:45.306Z,5
2017-05-19T05:15:45.252Z,5
2017-05-19T05:16:45.269Z,5
2017-05-19T05:17:45.364Z,5
2017-05-19T05:18:45.280Z,5
2017-05-19T05:19:44.367Z,0
2017-05-19T05:20:44.988Z,0
2017-05-19T05:21:45.463Z,0
2017-05-19T05:22:45.314Z,0
2017-05-19T05:23:45.326Z,0
2017-05-19T05:24:45.020Z,0
2017-05-19T05:25:45.387Z,0
2017-05-19T05:26:44.725Z,0
2017-05-19T05:27:45.422Z,0
2017-05-19T05:28:45.422Z,0
2017-05-19T05:29:45.383Z,0
2017-05-19T05:30:45.396Z,0
2017-05-19T05:31:45.444Z,0
2017-05-19T05:32:45.088Z,0
2017-05-19T05:33:45.116Z,0
2017-05-19T05:34:45.107Z,0
2017-05-19T05:35:45.111Z,0
2017-05-19T05:36:45.484Z,0
2017-05-19T05:37:45.179Z,0
2017-05-19T05:38:45.445Z,0
2017-05-19T05:39:45.504Z,0
2017-05-19T05:40:44.839Z,0
2017-05-19T05:41:45.166Z,0
2017-05-19T05:42:45.172Z,0
2017-05-19T05:43:45.545Z,0
2017-05-19T05:44:45.496Z,0
2017-05-19T05:45:45.246Z,0
2017-05-19T05:46:45.572Z,0
2017-05-19T05:47:45.526Z,0
2017-05-19T05:48:45.530Z,0
2017-05-19T05:49:44.967Z,0
2017-05-19T05:50:45.293Z,0
2017-05-19T05:51:45.550Z,0
2017-05-19T05:52:45.568Z,0
2017-05-19T05:53:45.372Z,0
2017-05-19T05:54:45.576Z,0
2017-05-19T05:55:45.683Z,0
2017-05-19T05:56:45.608Z,0
2017-05-19T05:57:45.293Z,0
2017-05-19T05:58:45.361Z,0
2017-05-19T05:59:45.630Z,0
2017-05-19T06:00:45.324Z,0
2017-05-19T06:01:45.333Z,0
2017-05-19T06:02:45.646Z,0
2017-05-19T06:03:45.391Z,0
2017-05-19T06:04:45.348Z,0
2017-05-19T06:05:45.360Z,0
2017-05-19T06:06:45.492Z,5
2017-05-19T06:07:45.690Z,5
2017-05-19T06:08:45.699Z,0
2017-05-19T06:09:45.083Z,0
2017-05-19T06:10:45.730Z,0
2017-05-19T06:11:45.411Z,0
2017-05-19T06:12:45.473Z,0
2017-05-19T06:13:45.740Z,5
2017-05-19T06:14:45.741Z,0
2017-05-19T06:15:44.820Z,0
2017-05-19T06:16:45.452Z,0
2017-05-19T06:17:45.150Z,0
2017-05-19T06:18:45.579Z,0
2017-05-19T06:19:45.481Z,0
2017-05-19T06:20:45.791Z,0
2017-05-19T06:21:44.867Z,0
2017-05-19T06:22:45.813Z,0
2017-05-19T06:23:45.830Z,0
2017-05-19T06:24:45.830Z,0
2017-05-19T06:25:45.571Z,0
2017-05-19T06:26:45.531Z,0
2017-05-19T06:27:45.275Z,0
2017-05-19T06:28:45.864Z,0
2017-05-19T06:29:45.914Z,5
2017-05-19T06:30:45.576Z,5
2017-05-19T06:31:45.570Z,5
2017-05-19T06:32:45.897Z,5
2017-05-19T06:33:45.585Z,5
2017-05-19T06:34:45.904Z,5
2017-05-19T06:35:45.908Z,5
2017-05-19T06:36:45.924Z,5
2017-05-19T06:37:45.977Z,5
2017-05-19T06:38:45.935Z,5
2017-05-19T06:39:45.651Z,5
2017-05-19T06:40:45.964Z,5
2017-05-19T06:41:45.960Z,5
2017-05-19T06:42:45.975Z,5
2017-05-19T06:43:45.987Z,5
2017-05-19T06:44:45.989Z,5
2017-05-19T06:45:45.680Z,5
2017-05-19T06:46:45.701Z,5
2017-05-19T06:47:45.764Z,5
2017-05-19T06:48:46.030Z,5
2017-05-19T06:49:46.078Z,5
2017-05-19T06:50:46.091Z,5
2017-05-19T06:51:46.049Z,5
2017-05-19T06:52:45.760Z,5
2017-05-19T06:53:46.064Z,5
2017-05-19T06:54:46.130Z,5
2017-05-19T06:55:45.505Z,5
2017-05-19T06:56:46.194Z,5
2017-05-19T06:57:46.105Z,5
2017-05-19T06:58:46.155Z,5
2017-05-19T06:59:45.492Z,5
2017-05-19T07:00:46.174Z,5
2017-05-19T07:01:46.182Z,5
2017-05-19T07:02:46.184Z,5
2017-05-19T07:03:45.836Z,5
2017-05-19T07:04:46.150Z,5
2017-05-19T07:05:45.852Z,5
2017-05-19T07:06:46.167Z,5
2017-05-19T07:07:45.926Z,5
2017-05-19T07:08:46.190Z,5
2017-05-19T07:09:45.573Z,5
2017-05-19T07:10:45.943Z,5
2017-05-19T07:11:45.595Z,5
2017-05-19T07:12:46.331Z,5
2017-05-19T07:13:45.924Z,5
2017-05-19T07:14:46.292Z,5
2017-05-19T07:15:46.299Z,5
2017-05-19T07:16:45.942Z,5
2017-05-19T07:17:46.264Z,5
2017-05-19T07:18:46.568Z,5
2017-05-19T07:19:45.706Z,5
2017-05-19T07:20:46.441Z,5
2017-05-19T07:21:46.030Z,5
2017-05-19T07:22:46.303Z,5
2017-05-19T07:23:46.315Z,5
2017-05-19T07:24:46.315Z,5
2017-05-19T07:25:45.703Z,5
2017-05-19T07:26:46.338Z,5
2017-05-19T07:27:46.084Z,5
2017-05-19T07:28:45.730Z,5
2017-05-19T07:29:46.105Z,5
2017-05-19T07:30:46.074Z,5
2017-05-19T07:31:46.067Z,5
2017-05-19T07:32:45.870Z,5
2017-05-19T07:33:46.083Z,5
2017-05-19T07:34:46.086Z,5
2017-05-19T07:35:46.461Z,5
2017-05-19T07:36:46.415Z,5
2017-05-19T07:37:46.173Z,10
2017-05-19T07:38:46.130Z,10
2017-05-19T07:39:46.439Z,10
2017-05-19T07:40:46.448Z,10
2017-05-19T07:41:46.454Z,10
2017-05-19T07:42:46.211Z,10
2017-05-19T07:43:46.475Z,15
2017-05-19T07:44:46.482Z,15
2017-05-19T07:45:45.862Z,15
2017-05-19T07:46:46.189Z,15
2017-05-19T07:47:46.199Z,15
2017-05-19T07:48:46.567Z,15
2017-05-19T07:49:46.521Z,15
2017-05-19T07:50:46.584Z,15
2017-05-19T07:51:46.532Z,15
2017-05-19T07:52:46.235Z,15
2017-05-19T07:53:46.553Z,15
2017-05-19T07:54:46.260Z,15
2017-05-19T07:55:46.307Z,15
2017-05-19T07:56:45.955Z,15
2017-05-19T07:57:46.594Z,15
2017-05-19T07:58:46.288Z,15
2017-05-19T07:59:46.667Z,15
2017-05-19T08:00:46.304Z,15
2017-05-19T08:01:45.996Z,15
2017-05-19T08:02:46.728Z,15
2017-05-19T08:03:46.378Z,15
2017-05-19T08:04:46.642Z,15
2017-05-19T08:05:46.076Z,15
2017-05-19T08:06:46.348Z,15
2017-05-19T08:07:46.146Z,15
2017-05-19T08:08:46.366Z,15
2017-05-19T08:09:46.379Z,15
2017-05-19T08:10:46.383Z,15
2017-05-19T08:11:46.445Z,15
2017-05-19T08:12:46.721Z,15
2017-05-19T08:13:46.454Z,20
2017-05-19T08:14:46.413Z,20
2017-05-19T08:15:46.425Z,20
2017-05-19T08:16:46.740Z,20
2017-05-19T08:17:47.042Z,20
2017-05-19T08:18:46.439Z,20
2017-05-19T08:19:46.749Z,20
2017-05-19T08:20:46.815Z,20
2017-05-19T08:21:46.448Z,20
2017-05-19T08:22:46.142Z,20
2017-05-19T08:23:46.512Z,20
2017-05-19T08:24:46.471Z,20
2017-05-19T08:25:46.775Z,20
2017-05-19T08:26:46.771Z,20
2017-05-19T08:27:46.578Z,25
2017-05-19T08:28:46.807Z,25
2017-05-19T08:29:46.530Z,25
2017-05-19T08:30:46.851Z,25
2017-05-19T08:31:46.897Z,25
2017-05-19T08:32:46.885Z,25
2017-05-19T08:33:46.267Z,25
2017-05-19T08:34:46.608Z,25
2017-05-19T08:35:46.299Z,25
2017-05-19T08:36:46.868Z,30
2017-05-19T08:37:46.626Z,30
2017-05-19T08:38:46.207Z,30
2017-05-19T08:39:46.527Z,30
2017-05-19T08:40:46.282Z,30
2017-05-19T08:41:46.891Z,30
2017-05-19T08:42:45.914Z,30
2017-05-19T08:43:46.532Z,30
2017-05-19T08:44:46.538Z,30
2017-05-19T08:45:46.900Z,30
2017-05-19T08:46:46.543Z,30
2017-05-19T08:47:46.874Z,30
2017-05-19T08:48:46.868Z,30
2017-05-19T08:49:46.549Z,30
2017-05-19T08:50:46.604Z,30
2017-05-19T08:51:46.865Z,25
2017-05-19T08:52:46.614Z,25
2017-05-19T08:53:46.869Z,25
2017-05-19T08:54:46.876Z,30
2017-05-19T08:55:46.886Z,30
2017-05-19T08:56:46.573Z,30
2017-05-19T08:57:46.898Z,30
2017-05-19T08:58:46.947Z,30
2017-05-19T08:59:46.593Z,30
2017-05-19T09:00:46.659Z,30
2017-05-19T09:01:46.914Z,30
2017-05-19T09:02:46.977Z,30
2017-05-19T09:03:46.628Z,30
2017-05-19T09:04:46.948Z,30
2017-05-19T09:05:46.315Z,30
2017-05-19T09:06:47.005Z,30
2017-05-19T09:07:46.075Z,35
2017-05-19T09:08:46.965Z,35
2017-05-19T09:09:46.825Z,35
2017-05-19T09:10:46.975Z,35
2017-05-19T09:11:46.677Z,35
2017-05-19T09:12:46.684Z,30
2017-05-19T09:13:46.478Z,30
2017-05-19T09:14:46.798Z,30
2017-05-19T09:15:46.704Z,30
2017-05-19T09:16:47.026Z,30
2017-05-19T09:17:47.034Z,30
2017-05-19T09:18:47.049Z,30
2017-05-19T09:19:46.745Z,30
2017-05-19T09:20:46.798Z,30
2017-05-19T09:21:47.113Z,30
2017-05-19T09:22:47.076Z,30
2017-05-19T09:23:47.087Z,30
2017-05-19T09:24:47.103Z,30
2017-05-19T09:25:46.471Z,30
2017-05-19T09:26:47.100Z,30
2017-05-19T09:27:47.125Z,30
2017-05-19T09:28:46.811Z,30
2017-05-19T09:29:47.237Z,30
2017-05-19T09:30:46.554Z,35
2017-05-19T09:31:47.192Z,35
2017-05-19T09:32:46.894Z,35
2017-05-19T09:33:46.844Z,35
2017-05-19T09:34:46.905Z,30
2017-05-19T09:35:47.223Z,30
2017-05-19T09:36:46.917Z,30
2017-05-19T09:37:47.187Z,30
2017-05-19T09:38:47.211Z,30
2017-05-19T09:39:46.890Z,30
2017-05-19T09:40:47.009Z,30
2017-05-19T09:41:47.215Z,30
2017-05-19T09:42:46.977Z,30
2017-05-19T09:43:46.926Z,30
2017-05-19T09:44:46.622Z,30
2017-05-19T09:45:47.359Z,30
2017-05-19T09:46:46.755Z,30
2017-05-19T09:47:46.648Z,35
2017-05-19T09:48:46.386Z,35
2017-05-19T09:49:46.971Z,35
2017-05-19T09:50:46.670Z,30
2017-05-19T09:51:47.595Z,30
2017-05-19T09:52:47.009Z,25
2017-05-19T09:53:47.331Z,25
2017-05-19T09:54:47.331Z,30
2017-05-19T09:55:47.071Z,30
2017-05-19T09:56:47.341Z,35
2017-05-19T09:57:47.092Z,35
2017-05-19T09:58:47.046Z,35
2017-05-19T09:59:47.370Z,35
2017-05-19T10:00:47.428Z,35
2017-05-19T10:01:46.808Z,30
2017-05-19T10:02:46.820Z,35
2017-05-19T10:03:47.136Z,35
2017-05-19T10:04:46.777Z,35
2017-05-19T10:05:46.789Z,35
2017-05-19T10:06:47.154Z,40
2017-05-19T10:07:46.908Z,40
2017-05-19T10:08:47.127Z,40
2017-05-19T10:09:47.442Z,45
2017-05-19T10:10:47.459Z,45
2017-05-19T10:11:47.462Z,45
2017-05-19T10:12:46.847Z,45
2017-05-19T10:13:47.174Z,45
2017-05-19T10:14:47.173Z,40
2017-05-19T10:15:47.238Z,40
2017-05-19T10:16:47.495Z,35
2017-05-19T10:17:47.508Z,30
2017-05-19T10:18:47.523Z,30
2017-05-19T10:19:47.217Z,30
2017-05-19T10:20:47.272Z,30
2017-05-19T10:21:47.539Z,30
2017-05-19T10:22:47.291Z,35
2017-05-19T10:23:47.565Z,35
2017-05-19T10:24:47.255Z,35
2017-05-19T10:25:47.263Z,35
2017-05-19T10:26:46.958Z,35
2017-05-19T10:27:47.283Z,35
2017-05-19T10:28:46.982Z,40
2017-05-19T10:29:47.367Z,45
2017-05-19T10:30:47.614Z,45
2017-05-19T10:31:47.627Z,45
2017-05-19T10:32:47.683Z,45
2017-05-19T10:33:46.760Z,45
2017-05-19T10:34:47.026Z,45
2017-05-19T10:35:47.342Z,45
2017-05-19T10:36:47.452Z,40
2017-05-19T10:37:47.729Z,35
2017-05-19T10:38:47.782Z,35
2017-05-19T10:39:47.367Z,30
2017-05-19T10:40:47.748Z,30
2017-05-19T10:41:47.396Z,30
2017-05-19T10:42:47.407Z,35
2017-05-19T10:43:47.425Z,45
2017-05-19T10:44:47.415Z,50
2017-05-19T10:45:47.833Z,55
2017-05-19T10:46:47.127Z,60
2017-05-19T10:47:47.755Z,60
2017-05-19T10:48:47.508Z,60
2017-05-19T10:49:47.151Z,55
2017-05-19T10:50:47.783Z,55
2017-05-19T10:51:47.784Z,55
2017-05-19T10:52:47.487Z,55
2017-05-19T10:53:47.814Z,55
2017-05-19T10:54:47.860Z,55
2017-05-19T10:55:47.518Z,55
2017-05-19T10:56:47.934Z,55
2017-05-19T10:57:47.611Z,55
2017-05-19T10:58:46.920Z,55
2017-05-19T10:59:47.542Z,55
2017-05-19T11:00:47.969Z,55
2017-05-19T11:01:47.928Z,55
2017-05-19T11:02:47.571Z,60
2017-05-19T11:03:47.944Z,55
2017-05-19T11:04:47.290Z,55
2017-05-19T11:05:47.603Z,55
2017-05-19T11:06:47.921Z,55
2017-05-19T11:07:48.037Z,55
2017-05-19T11:08:47.929Z,55
2017-05-19T11:09:47.938Z,55
2017-05-19T11:10:47.947Z,50
2017-05-19T11:11:47.953Z,50
2017-05-19T11:12:47.963Z,45
2017-05-19T11:13:47.354Z,50
2017-05-19T11:14:47.981Z,45
2017-05-19T11:15:47.740Z,45
2017-05-19T11:16:48.010Z,45
2017-05-19T11:17:48.114Z,40
2017-05-19T11:18:47.711Z,40
2017-05-19T11:19:47.722Z,40
2017-05-19T11:20:47.772Z,40
2017-05-19T11:21:47.753Z,40
2017-05-19T11:22:47.743Z,40
2017-05-19T11:23:47.751Z,45
2017-05-19T11:24:48.063Z,45
2017-05-19T11:25:48.080Z,45
2017-05-19T11:26:47.463Z,40
2017-05-19T11:27:48.192Z,30
2017-05-19T11:28:47.842Z,20
2017-05-19T11:29:47.485Z,15
2017-05-19T11:30:48.138Z,10
2017-05-19T11:31:47.813Z,10
2017-05-19T11:32:47.824Z,10
2017-05-19T11:33:47.881Z,15
2017-05-19T11:34:47.315Z,15
2017-05-19T11:35:47.915Z,10
2017-05-19T11:36:47.236Z,10
2017-05-19T11:37:47.875Z,10
2017-05-19T11:38:47.614Z,15
2017-05-19T11:39:47.574Z,15
2017-05-19T11:40:47.572Z,20
2017-05-19T11:41:48.203Z,20
2017-05-19T11:42:47.332Z,25
2017-05-19T11:43:47.647Z,30
2017-05-19T11:44:48.037Z,40
2017-05-19T11:45:47.358Z,40
2017-05-19T11:46:47.637Z,45
2017-05-19T11:47:47.683Z,50
2017-05-19T11:48:47.985Z,50
2017-05-19T11:49:47.025Z,45
2017-05-19T11:50:47.969Z,40
2017-05-19T11:51:48.028Z,40
2017-05-19T11:52:47.678Z,40
2017-05-19T11:53:47.687Z,40
2017-05-19T11:54:48.008Z,40
2017-05-19T11:55:48.011Z,35
2017-05-19T11:56:48.024Z,35
2017-05-19T11:57:48.083Z,35
2017-05-19T11:58:48.048Z,35
2017-05-19T11:59:48.045Z,35
2017-05-19T12:00:48.428Z,30
2017-05-19T12:01:48.159Z,30
2017-05-19T12:02:47.774Z,25
2017-05-19T12:03:48.391Z,25
2017-05-19T12:04:48.507Z,25
2017-05-19T12:05:47.793Z,20
2017-05-19T12:06:48.102Z,15
2017-05-19T12:07:47.825Z,15
2017-05-19T12:08:48.171Z,15
2017-05-19T12:09:47.515Z,15
2017-05-19T12:10:48.511Z,20
2017-05-19T12:11:47.833Z,20
2017-05-19T12:12:47.845Z,25
2017-05-19T12:13:48.327Z,30
2017-05-19T12:14:48.227Z,35
2017-05-19T12:15:47.915Z,35
2017-05-19T12:16:47.567Z,35
2017-05-19T12:17:48.511Z,35
2017-05-19T12:18:47.905Z,35
2017-05-19T12:19:48.207Z,40
2017-05-19T12:20:48.521Z,40
2017-05-19T12:21:48.594Z,35
2017-05-19T12:22:48.552Z,30
2017-05-19T12:23:48.303Z,35
2017-05-19T12:24:48.566Z,30
2017-05-19T12:25:48.019Z,35
2017-05-19T12:26:48.695Z,30
2017-05-19T12:27:47.966Z,25
2017-05-19T12:28:48.662Z,15
2017-05-19T12:29:48.607Z,15
2017-05-19T12:30:48.665Z,10
2017-05-19T12:31:48.317Z,5
2017-05-19T12:32:48.368Z,5
2017-05-19T12:33:47.755Z,5
2017-05-19T12:34:48.031Z,5
2017-05-19T12:35:48.445Z,5
2017-05-19T12:36:48.663Z,5
2017-05-19T12:37:48.416Z,5
2017-05-19T12:38:48.376Z,5
2017-05-19T12:39:48.380Z,10
2017-05-19T12:40:48.435Z,10
2017-05-19T12:41:48.089Z,10
2017-05-19T12:42:48.412Z,10
2017-05-19T12:43:48.169Z,10
2017-05-19T12:44:48.731Z,15
2017-05-19T12:45:48.794Z,20
2017-05-19T12:46:48.853Z,25
2017-05-19T12:47:48.768Z,30
2017-05-19T12:48:48.522Z,40
2017-05-19T12:49:48.825Z,40
2017-05-19T12:50:48.174Z,40
2017-05-19T12:51:48.796Z,40
2017-05-19T12:52:48.655Z,40
2017-05-19T12:53:48.548Z,40
2017-05-19T12:54:48.881Z,40
2017-05-19T12:55:48.929Z,40
2017-05-19T12:56:48.524Z,35
2017-05-19T12:57:48.904Z,35
2017-05-19T12:58:47.614Z,35
2017-05-19T12:59:48.556Z,35
2017-05-19T13:00:48.560Z,30
2017-05-19T13:01:48.884Z,30
2017-05-19T13:02:48.938Z,30
2017-05-19T13:03:48.898Z,30
2017-05-19T13:04:49.054Z,30
2017-05-19T13:05:47.977Z,30
2017-05-19T13:06:48.914Z,30
2017-05-19T13:07:48.302Z,30
2017-05-19T13:08:49.067Z,30
2017-05-19T13:09:48.995Z,30
2017-05-19T13:10:48.388Z,30
2017-05-19T13:11:48.962Z,25
2017-05-19T13:12:48.416Z,25
2017-05-19T13:13:48.054Z,25
2017-05-19T13:14:48.380Z,25
2017-05-19T13:15:48.424Z,25
2017-05-19T13:16:48.747Z,20
2017-05-19T13:17:48.085Z,20
2017-05-19T13:18:49.082Z,15
2017-05-19T13:19:48.417Z,15
2017-05-19T13:20:48.783Z,15
2017-05-19T13:21:49.101Z,15
2017-05-19T13:22:49.066Z,15
2017-05-19T13:23:48.810Z,15
2017-05-19T13:24:49.071Z,15
2017-05-19T13:25:48.780Z,15
2017-05-19T13:26:48.176Z,20
2017-05-19T13:27:48.536Z,15
2017-05-19T13:28:48.857Z,15
2017-05-19T13:29:48.809Z,15
2017-05-19T13:30:48.817Z,20
2017-05-19T13:31:48.876Z,20
2017-05-19T13:32:48.942Z,20
2017-05-19T13:33:48.539Z,20
2017-05-19T13:34:48.906Z,20
2017-05-19T13:35:48.549Z,20
2017-05-19T13:36:48.564Z,20
2017-05-19T13:37:48.621Z,20
2017-05-19T13:38:48.684Z,20
2017-05-19T13:39:48.951Z,15
2017-05-19T13:40:48.962Z,15
2017-05-19T13:41:48.653Z,15
2017-05-19T13:42:48.979Z,20
2017-05-19T13:43:48.368Z,20
2017-05-19T13:44:48.959Z,25
2017-05-19T13:45:48.636Z,25
2017-05-19T13:46:48.694Z,20
2017-05-19T13:47:48.962Z,25
2017-05-19T13:48:48.994Z,25
2017-05-19T13:49:48.984Z,25
2017-05-19T13:50:48.679Z,25
2017-05-19T13:51:48.378Z,25
2017-05-19T13:52:49.016Z,25
2017-05-19T13:53:48.708Z,25
2017-05-19T13:54:49.349Z,20
2017-05-19T13:55:48.413Z,20
2017-05-19T13:56:49.147Z,20
2017-05-19T13:57:49.468Z,20
2017-05-19T13:58:49.375Z,20
2017-05-19T13:59:49.403Z,20
2017-05-19T14:00:49.142Z,25
2017-05-19T14:01:49.399Z,25
2017-05-19T14:02:49.178Z,25
2017-05-19T14:03:48.894Z,25
2017-05-19T14:04:49.113Z,25
2017-05-19T14:05:49.538Z,25
2017-05-19T14:06:49.135Z,25
2017-05-19T14:07:49.146Z,25
2017-05-19T14:08:49.149Z,25
2017-05-19T14:09:49.160Z,25
2017-05-19T14:10:49.219Z,25
2017-05-19T14:11:49.173Z,25
2017-05-19T14:12:49.516Z,25
2017-05-19T14:13:48.575Z,20
2017-05-19T14:14:48.905Z,20
2017-05-19T14:15:49.264Z,20
2017-05-19T14:16:49.219Z,20
2017-05-19T14:17:49.598Z,20
2017-05-19T14:18:49.247Z,20
2017-05-19T14:19:48.996Z,20
2017-05-19T14:20:48.942Z,20
2017-05-19T14:21:49.581Z,20
2017-05-19T14:22:48.656Z,15
2017-05-19T14:23:49.342Z,15
2017-05-19T14:24:49.707Z,15
2017-05-19T14:25:49.619Z,15
2017-05-19T14:26:49.358Z,15
2017-05-19T14:27:49.374Z,15
2017-05-19T14:28:49.387Z,15
2017-05-19T14:29:49.712Z,15
2017-05-19T14:30:49.032Z,15
2017-05-19T14:31:49.042Z,15
2017-05-19T14:32:49.056Z,15